createdAt,value
2018-03-18T00:00:23.041Z,66.36
2018-03-18T00:02:50.441Z,67.67
2018-03-18T00:05:17.854Z,65.87
2018-03-18T00:07:45.256Z,65.79
2018-03-18T00:10:12.649Z,66.42
2018-03-18T00:12:40.042Z,66.50
2018-03-18T00:15:07.438Z,66.10
2018-03-18T00:17:34.837Z,67.16
2018-03-18T00:20:02.228Z,65.81
2018-03-18T00:22:29.609Z,65.84
2018-03-18T00:24:57.005Z,66.63
2018-03-18T00:27:24.402Z,66.67
2018-03-18T00:29:51.809Z,66.18
2018-03-18T00:32:19.200Z,66.75
2018-03-18T00:34:46.612Z,67.29
2018-03-18T00:37:13.993Z,66.58
2018-03-18T00:39:41.389Z,65.95
2018-03-18T00:42:08.782Z,66.82
2018-03-18T00:44:36.173Z,66.07
2018-03-18T00:47:03.567Z,65.94
2018-03-18T00:49:30.990Z,66.26
2018-03-18T00:52:01.224Z,66.46
2018-03-18T00:54:28.616Z,66.61
2018-03-18T00:56:56.007Z,67.38
2018-03-18T00:59:23.405Z,66.16
2018-03-18T01:01:50.798Z,66.38
2018-03-18T01:04:18.201Z,66.02
2018-03-18T01:06:45.591Z,66.22
2018-03-18T01:09:12.988Z,65.59
2018-03-18T01:11:40.477Z,65.79
2018-03-18T01:14:07.925Z,66.32
2018-03-18T01:16:35.262Z,66.74
2018-03-18T01:19:02.650Z,66.91
2018-03-18T01:21:30.046Z,67.37
2018-03-18T01:23:57.461Z,67.19
2018-03-18T01:26:24.856Z,67.24
2018-03-18T01:28:52.254Z,66.13
2018-03-18T01:31:19.648Z,66.62
2018-03-18T01:33:47.048Z,66.77
2018-03-18T01:36:14.429Z,65.84
2018-03-18T01:38:41.839Z,66.06
2018-03-18T01:41:09.221Z,65.65
2018-03-18T01:43:36.624Z,65.05
2018-03-18T01:46:04.010Z,65.20
2018-03-18T01:48:31.392Z,65.63
2018-03-18T01:50:58.790Z,65.99
2018-03-18T01:53:26.173Z,65.84
2018-03-18T01:55:53.582Z,65.14
2018-03-18T01:58:20.968Z,65.55
2018-03-18T02:00:48.353Z,65.95
2018-03-18T02:03:15.758Z,66.48
2018-03-18T02:05:43.153Z,66.56
2018-03-18T02:08:10.549Z,66.03
2018-03-18T02:10:37.937Z,65.56
2018-03-18T02:13:05.335Z,64.39
2018-03-18T02:15:32.730Z,64.42
2018-03-18T02:18:00.122Z,64.88
2018-03-18T02:20:27.521Z,64.43
2018-03-18T02:22:54.913Z,65.42
2018-03-18T02:25:22.320Z,64.99
2018-03-18T02:27:49.704Z,65.49
2018-03-18T02:30:17.175Z,65.27
2018-03-18T02:32:44.597Z,64.97
2018-03-18T02:35:11.999Z,64.57
2018-03-18T02:37:39.373Z,63.70
2018-03-18T02:40:06.778Z,65.02
2018-03-18T02:42:34.169Z,64.76
2018-03-18T02:45:01.592Z,65.48
2018-03-18T02:47:29.301Z,65.16
2018-03-18T02:49:56.779Z,65.06
2018-03-18T02:52:24.145Z,65.81
2018-03-18T02:54:51.545Z,65.17
2018-03-18T02:57:19.009Z,65.24
2018-03-18T02:59:46.365Z,65.14
2018-03-18T03:02:13.761Z,63.95
2018-03-18T03:04:41.211Z,65.27
2018-03-18T03:07:08.621Z,64.26
2018-03-18T03:09:36.066Z,64.58
2018-03-18T03:12:03.474Z,64.44
2018-03-18T03:14:30.852Z,64.39
2018-03-18T03:16:58.265Z,64.15
2018-03-18T03:19:25.648Z,64.16
2018-03-18T03:21:53.091Z,64.23
2018-03-18T03:24:20.529Z,64.64
2018-03-18T03:26:47.944Z,63.84
2018-03-18T03:29:15.376Z,64.25
2018-03-18T03:31:42.766Z,62.88
2018-03-18T03:34:10.184Z,63.99
2018-03-18T03:36:37.553Z,63.85
2018-03-18T03:39:04.952Z,63.83
2018-03-18T03:41:32.341Z,64.23
2018-03-18T03:43:59.739Z,63.23
2018-03-18T03:46:27.140Z,63.07
2018-03-18T03:48:54.539Z,63.38
2018-03-18T03:51:21.930Z,63.46
2018-03-18T03:53:49.331Z,63.94
2018-03-18T03:56:16.725Z,63.09
2018-03-18T03:58:44.125Z,62.72
2018-03-18T04:01:11.531Z,63.29
2018-03-18T04:03:38.924Z,63.66
2018-03-18T04:06:06.325Z,63.70
2018-03-18T04:08:33.754Z,63.36
2018-03-18T04:11:01.153Z,62.86
2018-03-18T04:13:28.540Z,62.78
2018-03-18T04:15:55.936Z,62.85
2018-03-18T04:18:23.333Z,63.45
2018-03-18T04:20:50.945Z,63.26
2018-03-18T04:23:18.349Z,64.70
2018-03-18T04:25:45.740Z,62.75
2018-03-18T04:28:13.149Z,63.92
2018-03-18T04:30:40.564Z,63.41
2018-03-18T04:33:07.957Z,62.34
2018-03-18T04:35:35.345Z,62.80
2018-03-18T04:38:02.742Z,62.44
2018-03-18T04:40:30.133Z,62.53
2018-03-18T04:42:57.520Z,63.00
2018-03-18T04:45:24.912Z,63.18
2018-03-18T04:47:52.312Z,63.53
2018-03-18T04:50:19.715Z,62.86
2018-03-18T04:52:47.110Z,64.60
2018-03-18T04:55:14.505Z,64.03
2018-03-18T04:57:41.948Z,63.44
2018-03-18T05:00:09.322Z,63.34
2018-03-18T05:02:36.746Z,63.78
2018-03-18T05:05:04.135Z,63.12
2018-03-18T05:07:31.550Z,64.95
2018-03-18T05:09:58.959Z,63.73
2018-03-18T05:12:26.357Z,66.01
2018-03-18T05:14:53.761Z,67.13
2018-03-18T05:17:21.149Z,68.41
2018-03-18T05:19:48.537Z,69.72
2018-03-18T05:22:15.949Z,69.63
2018-03-18T05:24:43.374Z,69.51
2018-03-18T05:27:10.764Z,67.84
2018-03-18T05:29:38.182Z,68.92
2018-03-18T05:32:05.589Z,67.06
2018-03-18T05:34:33.025Z,66.29
2018-03-18T05:37:00.416Z,67.61
2018-03-18T05:39:27.865Z,66.92
2018-03-18T05:41:55.260Z,65.63
2018-03-18T05:44:22.646Z,66.51
2018-03-18T05:46:50.045Z,66.05
2018-03-18T05:49:17.501Z,65.00
2018-03-18T05:51:44.897Z,67.40
2018-03-18T05:54:12.356Z,64.96
2018-03-18T05:56:39.809Z,67.54
2018-03-18T05:59:07.247Z,68.29
2018-03-18T06:01:34.646Z,68.95
2018-03-18T06:04:02.047Z,69.54
2018-03-18T06:06:29.445Z,69.96
2018-03-18T06:08:56.836Z,71.05
2018-03-18T06:11:24.239Z,72.09
2018-03-18T06:13:51.644Z,70.70
2018-03-18T06:16:19.061Z,71.61
2018-03-18T06:18:46.457Z,72.15
2018-03-18T06:21:13.865Z,72.14
2018-03-18T06:23:41.274Z,73.73
2018-03-18T06:26:08.674Z,74.78
2018-03-18T06:28:36.116Z,73.76
2018-03-18T06:31:03.542Z,73.06
2018-03-18T06:33:30.943Z,71.22
2018-03-18T06:35:58.352Z,72.48
2018-03-18T06:38:25.741Z,70.37
2018-03-18T06:40:53.171Z,69.75
2018-03-18T06:43:20.558Z,68.83
2018-03-18T06:45:47.944Z,69.11
2018-03-18T06:48:15.373Z,69.86
2018-03-18T06:50:42.821Z,70.24
2018-03-18T06:53:10.208Z,70.48
2018-03-18T06:55:40.768Z,71.47
2018-03-18T06:58:08.268Z,69.96
2018-03-18T07:00:36.618Z,69.32
2018-03-18T07:03:04.061Z,70.71
2018-03-18T07:05:31.495Z,70.42
2018-03-18T07:07:58.891Z,71.00
2018-03-18T07:10:26.293Z,70.44
2018-03-18T07:12:55.497Z,70.44
2018-03-18T07:15:22.898Z,69.67
2018-03-18T07:17:50.348Z,70.70
2018-03-18T07:20:17.767Z,71.75
2018-03-18T07:22:45.181Z,71.03
2018-03-18T07:25:12.578Z,70.37
2018-03-18T07:27:39.974Z,69.56
2018-03-18T07:30:07.382Z,70.13
2018-03-18T07:32:34.768Z,71.35
2018-03-18T07:35:02.160Z,69.04
2018-03-18T07:37:29.557Z,66.19
2018-03-18T07:39:56.959Z,66.55
2018-03-18T07:42:24.361Z,66.77
2018-03-18T07:44:51.745Z,67.67
2018-03-18T07:47:19.182Z,68.19
2018-03-18T07:49:46.536Z,67.55
2018-03-18T07:52:13.921Z,67.42
2018-03-18T07:54:41.326Z,67.31
2018-03-18T07:57:08.717Z,66.68
2018-03-18T07:59:36.118Z,67.68
2018-03-18T08:02:03.537Z,67.82
2018-03-18T08:04:30.909Z,69.21
2018-03-18T08:06:59.350Z,69.96
2018-03-18T08:09:26.741Z,69.03
2018-03-18T08:11:54.137Z,68.37
2018-03-18T08:14:21.533Z,68.02
2018-03-18T08:16:48.920Z,67.27
2018-03-18T08:19:16.321Z,67.77
2018-03-18T08:21:43.715Z,67.50
2018-03-18T08:24:11.105Z,66.36
2018-03-18T08:26:38.493Z,65.63
2018-03-18T08:29:05.881Z,65.48
2018-03-18T08:31:33.277Z,65.00
2018-03-18T08:34:00.669Z,67.84
2018-03-18T08:36:28.071Z,66.27
2018-03-18T08:39:02.296Z,67.26
2018-03-18T08:41:29.706Z,64.90
2018-03-18T08:43:57.116Z,67.33
2018-03-18T08:46:24.508Z,67.08
2018-03-18T08:48:51.900Z,67.56
2018-03-18T08:51:19.293Z,67.48
2018-03-18T08:53:46.702Z,68.32
2018-03-18T08:56:14.096Z,68.81
2018-03-18T08:58:41.485Z,69.63
2018-03-18T09:01:08.883Z,68.66
2018-03-18T09:03:36.265Z,68.80
2018-03-18T09:06:03.671Z,67.30
2018-03-18T09:08:31.059Z,70.88
2018-03-18T09:10:58.447Z,70.77
2018-03-18T09:13:25.841Z,65.43
2018-03-18T09:15:53.229Z,68.48
2018-03-18T09:18:20.633Z,66.30
2018-03-18T09:20:48.042Z,66.21
2018-03-18T09:23:15.425Z,66.55
2018-03-18T09:25:42.855Z,65.06
2018-03-18T09:28:10.213Z,63.53
2018-03-18T09:30:37.625Z,63.43
2018-03-18T09:33:05.020Z,62.42
2018-03-18T09:35:32.417Z,61.82
2018-03-18T09:37:59.821Z,60.44
2018-03-18T09:40:27.213Z,60.91
2018-03-18T09:42:54.621Z,59.14
2018-03-18T09:45:22.001Z,59.62
2018-03-18T09:47:49.386Z,58.02
2018-03-18T09:50:16.783Z,57.85
2018-03-18T09:52:44.174Z,57.87
2018-03-18T09:55:11.569Z,57.25
2018-03-18T09:57:38.966Z,57.89
2018-03-18T10:00:06.353Z,57.96
2018-03-18T10:02:33.769Z,57.01
2018-03-18T10:05:01.139Z,57.98
2018-03-18T10:07:28.545Z,57.65
2018-03-18T10:09:55.937Z,55.83
2018-03-18T10:12:23.329Z,53.89
2018-03-18T10:14:50.721Z,55.07
2018-03-18T10:17:18.136Z,55.90
2018-03-18T10:19:45.537Z,55.90
2018-03-18T10:22:12.958Z,55.71
2018-03-18T10:24:40.338Z,54.97
2018-03-18T10:27:07.750Z,56.44
2018-03-18T10:29:35.133Z,54.94
2018-03-18T10:32:02.543Z,55.67
2018-03-18T10:34:29.937Z,54.94
2018-03-18T10:36:57.327Z,55.06
2018-03-18T10:39:24.721Z,54.11
2018-03-18T10:41:52.149Z,55.55
2018-03-18T10:44:19.514Z,54.63
2018-03-18T10:46:46.903Z,54.27
2018-03-18T10:49:14.299Z,54.41
2018-03-18T10:51:41.709Z,54.29
2018-03-18T10:54:09.102Z,55.23
2018-03-18T10:56:36.521Z,55.98
2018-03-18T10:59:03.909Z,53.32
2018-03-18T11:01:48.997Z,54.88
2018-03-18T11:04:17.329Z,53.22
2018-03-18T11:06:44.729Z,54.56
2018-03-18T11:09:12.148Z,53.73
2018-03-18T11:11:39.537Z,53.11
2018-03-18T11:14:06.934Z,52.97
2018-03-18T11:16:34.333Z,54.47
2018-03-18T11:19:01.725Z,52.30
2018-03-18T11:21:29.145Z,54.19
2018-03-18T11:23:56.553Z,53.21
2018-03-18T11:26:23.933Z,52.44
2018-03-18T11:28:51.333Z,50.54
2018-03-18T11:31:18.738Z,53.67
2018-03-18T11:33:46.142Z,52.19
2018-03-18T11:36:13.555Z,51.62
2018-03-18T11:38:40.969Z,52.26
2018-03-18T11:41:08.349Z,52.09
2018-03-18T11:43:35.785Z,52.11
2018-03-18T11:46:03.145Z,50.82
2018-03-18T11:48:30.541Z,51.87
2018-03-18T11:50:57.936Z,49.55
2018-03-18T11:53:25.334Z,50.73
2018-03-18T11:55:52.764Z,50.21
2018-03-18T11:58:20.122Z,50.76
2018-03-18T12:00:47.529Z,50.84
2018-03-18T12:03:14.918Z,49.64
2018-03-18T12:05:42.328Z,51.66
2018-03-18T12:11:02.685Z,51.58
2018-03-18T12:13:30.093Z,51.26
2018-03-18T12:15:57.485Z,50.25
2018-03-18T12:18:24.899Z,51.17
2018-03-18T12:20:52.313Z,51.79
2018-03-18T12:23:19.706Z,48.12
2018-03-18T12:25:47.106Z,49.61
2018-03-18T12:28:14.501Z,50.21
2018-03-18T12:30:41.889Z,48.65
2018-03-18T12:33:09.281Z,49.11
2018-03-18T12:35:36.687Z,48.69
2018-03-18T12:38:04.083Z,47.68
2018-03-18T12:40:34.069Z,48.00
2018-03-18T12:43:13.153Z,48.28
2018-03-18T12:45:40.557Z,48.96
2018-03-18T12:48:07.953Z,51.62
2018-03-18T12:50:35.345Z,49.79
2018-03-18T12:53:02.742Z,51.70
2018-03-18T12:55:30.165Z,49.19
2018-03-18T12:57:57.554Z,50.32
2018-03-18T13:00:24.943Z,46.68
2018-03-18T13:02:52.341Z,48.08
2018-03-18T13:05:19.794Z,49.89
2018-03-18T13:07:47.213Z,49.45
2018-03-18T13:10:14.661Z,48.26
2018-03-18T13:12:42.077Z,47.22
2018-03-18T13:15:09.502Z,48.11
2018-03-18T13:17:36.909Z,47.13
2018-03-18T13:20:04.317Z,48.06
2018-03-18T13:22:31.704Z,46.92
2018-03-18T13:24:59.102Z,47.89
2018-03-18T13:27:26.505Z,46.62
2018-03-18T13:29:53.890Z,48.83
2018-03-18T13:32:21.285Z,44.35
2018-03-18T13:34:48.677Z,46.53
2018-03-18T13:37:16.062Z,42.99
2018-03-18T13:39:43.448Z,45.24
2018-03-18T13:42:10.833Z,45.96
2018-03-18T13:44:38.228Z,46.00
2018-03-18T13:47:05.624Z,48.82
2018-03-18T13:49:33.001Z,45.93
2018-03-18T13:52:00.389Z,44.68
2018-03-18T13:54:27.778Z,45.03
2018-03-18T13:56:55.169Z,44.56
2018-03-18T13:59:22.570Z,43.68
2018-03-18T14:01:49.929Z,43.77
2018-03-18T14:04:17.320Z,43.05
2018-03-18T14:06:44.706Z,45.19
2018-03-18T14:09:12.114Z,45.82
2018-03-18T14:11:39.497Z,46.15
2018-03-18T14:14:06.877Z,45.78
2018-03-18T14:16:34.303Z,46.79
2018-03-18T14:19:01.673Z,45.88
2018-03-18T14:21:29.073Z,46.25
2018-03-18T14:23:56.457Z,45.13
2018-03-18T14:26:23.833Z,45.12
2018-03-18T14:28:51.225Z,45.37
2018-03-18T14:31:18.612Z,45.31
2018-03-18T14:33:46.013Z,47.62
2018-03-18T14:36:13.403Z,45.62
2018-03-18T14:38:40.789Z,47.60
2018-03-18T14:41:09.229Z,46.30
2018-03-18T14:43:36.636Z,47.54
2018-03-18T14:46:04.023Z,46.76
2018-03-18T14:48:31.451Z,45.58
2018-03-18T14:50:58.861Z,46.89
2018-03-18T14:53:26.238Z,48.13
2018-03-18T14:55:53.689Z,45.95
2018-03-18T14:58:21.122Z,46.14
2018-03-18T15:00:48.605Z,45.38
2018-03-18T15:03:16.013Z,46.36
2018-03-18T15:05:43.468Z,47.40
2018-03-18T15:08:10.953Z,45.09
2018-03-18T15:10:38.361Z,47.21
2018-03-18T15:13:05.744Z,47.31
2018-03-18T15:15:33.118Z,47.94
2018-03-18T15:18:00.531Z,47.23
2018-03-18T15:20:27.920Z,46.27
2018-03-18T15:22:56.354Z,46.47
2018-03-18T15:25:23.749Z,46.89
2018-03-18T15:27:51.137Z,46.62
2018-03-18T15:30:18.560Z,46.09
2018-03-18T15:32:45.968Z,47.73
2018-03-18T15:35:13.358Z,47.15
2018-03-18T15:37:40.742Z,46.10
2018-03-18T15:40:08.175Z,46.50
2018-03-18T15:42:35.565Z,48.52
2018-03-18T15:45:02.956Z,47.23
2018-03-18T15:47:43.108Z,47.26
2018-03-18T15:50:10.530Z,48.18
2018-03-18T15:52:37.924Z,46.53
2018-03-18T15:55:05.338Z,46.14
2018-03-18T15:57:32.729Z,46.62
2018-03-18T16:00:00.118Z,47.33
2018-03-18T16:02:27.530Z,46.12
2018-03-18T16:04:54.909Z,47.68
2018-03-18T16:07:22.363Z,47.46
2018-03-18T16:09:49.683Z,47.11
2018-03-18T16:12:17.074Z,47.02
2018-03-18T16:14:44.453Z,47.98
2018-03-18T16:17:11.886Z,48.02
2018-03-18T16:19:39.265Z,47.91
2018-03-18T16:22:06.679Z,46.78
2018-03-18T16:24:34.052Z,49.00
2018-03-18T16:27:01.438Z,47.43
2018-03-18T16:29:40.473Z,48.16
2018-03-18T16:32:07.865Z,48.08
2018-03-18T16:34:35.258Z,47.00
2018-03-18T16:37:02.682Z,48.11
2018-03-18T16:39:30.067Z,48.31
2018-03-18T16:41:57.468Z,47.30
2018-03-18T16:44:24.872Z,49.09
2018-03-18T16:46:52.271Z,48.90
2018-03-18T16:49:19.659Z,48.60
2018-03-18T16:51:47.060Z,49.49
2018-03-18T16:54:14.540Z,49.74
2018-03-18T16:56:41.926Z,48.62
2018-03-18T16:59:09.332Z,49.56
2018-03-18T17:01:36.762Z,48.56
2018-03-18T17:04:04.167Z,49.35
2018-03-18T17:06:31.621Z,48.02
2018-03-18T17:08:58.962Z,50.00
2018-03-18T17:11:26.372Z,49.44
2018-03-18T17:13:53.769Z,48.95
2018-03-18T17:16:21.234Z,50.43
2018-03-18T17:18:48.742Z,49.71
2018-03-18T17:21:16.142Z,50.67
2018-03-18T17:23:43.525Z,49.48
2018-03-18T17:26:10.917Z,50.82
2018-03-18T17:28:39.380Z,50.46
2018-03-18T17:31:08.079Z,50.49
2018-03-18T17:33:35.545Z,50.18
2018-03-18T17:36:02.947Z,50.27
2018-03-18T17:38:30.338Z,50.41
2018-03-18T17:40:57.725Z,51.56
2018-03-18T17:43:25.137Z,50.83
2018-03-18T17:46:04.305Z,51.42
2018-03-18T17:48:43.387Z,51.83
2018-03-18T17:51:22.437Z,51.36
2018-03-18T17:54:01.617Z,51.30
2018-03-18T17:56:37.709Z,52.25
2018-03-18T17:59:05.114Z,51.24
2018-03-18T18:01:32.521Z,51.28
2018-03-18T18:04:00.428Z,51.97
2018-03-18T18:06:27.833Z,52.73
2018-03-18T18:08:55.263Z,52.15
2018-03-18T18:11:22.657Z,53.63
2018-03-18T18:13:50.302Z,51.62
2018-03-18T18:16:29.430Z,53.01
2018-03-18T18:18:56.835Z,51.69
2018-03-18T18:21:24.222Z,51.81
2018-03-18T18:23:52.755Z,53.00
2018-03-18T18:26:20.604Z,51.20
2018-03-18T18:28:48.006Z,51.51
2018-03-18T18:31:15.394Z,51.63
2018-03-18T18:33:42.880Z,50.77
2018-03-18T18:36:10.271Z,51.40
2018-03-18T18:38:37.712Z,52.52
2018-03-18T18:41:05.182Z,51.57
2018-03-18T18:43:32.576Z,50.17
2018-03-18T18:45:59.963Z,51.50
2018-03-18T18:48:27.373Z,49.04
2018-03-18T18:50:54.785Z,50.48
2018-03-18T18:53:22.177Z,50.32
2018-03-18T18:55:49.597Z,50.05
2018-03-18T18:58:16.981Z,50.82
2018-03-18T19:00:44.369Z,49.54
2018-03-18T19:03:11.781Z,50.46
2018-03-18T19:05:39.182Z,51.05
2018-03-18T19:08:06.570Z,51.90
2018-03-18T19:10:33.983Z,50.34
2018-03-18T19:13:01.369Z,51.28
2018-03-18T19:15:36.954Z,49.79
2018-03-18T19:18:04.357Z,50.17
2018-03-18T19:20:31.778Z,49.65
2018-03-18T19:22:59.377Z,50.73
2018-03-18T19:25:27.317Z,49.91
2018-03-18T19:27:54.898Z,50.98
2018-03-18T19:30:22.294Z,51.04
2018-03-18T19:32:50.177Z,49.85
2018-03-18T19:35:18.918Z,50.53
2018-03-18T19:37:46.314Z,49.96
2018-03-18T19:40:21.933Z,50.09
2018-03-18T19:42:49.325Z,50.04
2018-03-18T19:45:16.708Z,50.47
2018-03-18T19:47:44.094Z,50.32
2018-03-18T19:50:11.501Z,48.63
2018-03-18T19:52:38.925Z,47.27
2018-03-18T19:55:06.313Z,49.24
2018-03-18T19:57:33.830Z,49.33
2018-03-18T20:00:02.214Z,47.29
2018-03-18T20:02:29.629Z,47.74
2018-03-18T20:04:57.057Z,46.20
2018-03-18T20:07:24.451Z,47.79
2018-03-18T20:09:51.837Z,46.69
2018-03-18T20:12:19.254Z,47.43
2018-03-18T20:14:46.638Z,47.57
2018-03-18T20:17:14.022Z,46.99
2018-03-18T20:19:41.421Z,46.71
2018-03-18T20:22:08.907Z,48.67
2018-03-18T20:24:36.290Z,47.71
2018-03-18T20:27:03.765Z,46.78
2018-03-18T20:29:32.077Z,47.64
2018-03-18T20:31:59.469Z,48.49
2018-03-18T20:34:26.894Z,45.83
2018-03-18T20:36:54.297Z,47.74
2018-03-18T20:39:22.806Z,47.02
2018-03-18T20:42:02.706Z,45.48
2018-03-18T20:44:30.086Z,46.18
2018-03-18T20:46:57.469Z,46.85
2018-03-18T20:49:24.894Z,45.85
2018-03-18T20:51:52.277Z,47.31
2018-03-18T20:54:19.669Z,46.86
2018-03-18T20:56:47.083Z,47.32
2018-03-18T20:59:14.477Z,46.11
2018-03-18T21:01:41.853Z,45.26
2018-03-18T21:04:09.266Z,45.56
2018-03-18T21:06:36.654Z,46.52
2018-03-18T21:09:04.042Z,46.25
2018-03-18T21:11:31.440Z,45.63
2018-03-18T21:13:58.828Z,45.28
2018-03-18T21:16:26.213Z,45.73
2018-03-18T21:18:53.630Z,45.67
2018-03-18T21:21:21.017Z,46.29
2018-03-18T21:23:48.413Z,44.88
2018-03-18T21:26:15.837Z,45.23
2018-03-18T21:28:43.261Z,45.66
2018-03-18T21:31:15.066Z,45.18
2018-03-18T21:33:43.541Z,46.00
2018-03-18T21:36:10.982Z,45.87
2018-03-18T21:38:38.376Z,44.73
2018-03-18T21:41:06.109Z,44.47
2018-03-18T21:43:34.045Z,44.74
2018-03-18T21:46:01.441Z,44.21
2018-03-18T21:48:29.014Z,44.84
2018-03-18T21:50:57.297Z,44.70
2018-03-18T21:53:24.824Z,44.47
2018-03-18T21:55:52.251Z,44.74
2018-03-18T21:58:22.118Z,45.12
2018-03-18T22:00:49.615Z,46.48
2018-03-18T22:03:17.397Z,45.03
2018-03-18T22:05:44.840Z,46.20
2018-03-18T22:08:12.229Z,45.65
2018-03-18T22:10:39.649Z,45.43
2018-03-18T22:13:07.071Z,44.60
2018-03-18T22:15:34.511Z,44.49
2018-03-18T22:18:01.922Z,44.97
2018-03-18T22:20:29.310Z,45.22
2018-03-18T22:22:56.702Z,44.52
2018-03-18T22:25:26.325Z,46.00
2018-03-18T22:27:53.721Z,46.24
2018-03-18T22:30:21.153Z,45.26
2018-03-18T22:32:48.561Z,44.94
2018-03-18T22:35:15.962Z,45.32
2018-03-18T22:37:43.363Z,45.71
2018-03-18T22:40:10.762Z,45.02
2018-03-18T22:42:38.150Z,45.15
2018-03-18T22:45:05.537Z,45.15
2018-03-18T22:47:32.954Z,46.37
2018-03-18T22:50:00.350Z,46.28
2018-03-18T22:52:27.728Z,45.61
2018-03-18T22:54:55.153Z,45.94
2018-03-18T22:57:22.537Z,45.86
2018-03-18T22:59:49.928Z,45.92
2018-03-18T23:02:17.434Z,45.82
2018-03-18T23:04:44.837Z,47.35
2018-03-18T23:07:12.227Z,45.65
2018-03-18T23:09:39.618Z,45.97
2018-03-18T23:12:07.007Z,45.81
2018-03-18T23:14:34.402Z,46.67
2018-03-18T23:17:01.810Z,46.60
2018-03-18T23:19:29.197Z,48.36
2018-03-18T23:21:56.583Z,47.59
2018-03-18T23:24:24.006Z,45.73
2018-03-18T23:26:51.384Z,45.97
2018-03-18T23:29:18.777Z,47.60
2018-03-18T23:31:46.174Z,46.43
2018-03-18T23:34:13.557Z,46.54
2018-03-18T23:36:40.949Z,47.20
2018-03-18T23:39:08.345Z,46.70
2018-03-18T23:41:35.745Z,45.71
2018-03-18T23:44:03.134Z,45.76
2018-03-18T23:46:30.549Z,46.13
2018-03-18T23:48:57.932Z,47.83
2018-03-18T23:51:25.328Z,47.27
2018-03-18T23:53:52.719Z,46.13
2018-03-18T23:56:20.109Z,47.88
2018-03-18T23:58:47.490Z,46.78
